Time;durP1;ratioP1;P1;durP2;ratioP2;P2;SDS_P1;SDS_P2;PMS_P1;PMS_P2;Temp;Humidity;BMP_temperature;BMP_pressure;BME280_temperature;BME280_humidity;BME280_pressure;Samples;Min_cycle;Max_cycle;Signal;HPM_P1;HPM_P2
2023/12/04 00:02:00;;;;;;;46.78;27.95;;;;;;;0.65;100.00;99792.56;5051129;28;20059;-80
2023/12/04 00:04:28;;;;;;;44.38;26.92;;;;;;;0.60;100.00;99788.66;5018940;28;20033;-80
2023/12/04 00:06:56;;;;;;;32.47;21.98;;;;;;;0.64;100.00;99805.94;5051129;28;20025;-80
2023/12/04 00:09:24;;;;;;;34.65;18.27;;;;;;;0.64;100.00;99801.47;5019219;28;20029;-80
2023/12/04 00:11:50;;;;;;;37.40;24.42;;;;;;;0.59;100.00;99795.75;5035149;28;20043;-80
2023/12/04 00:14:16;;;;;;;26.92;16.70;;;;;;;0.58;100.00;99802.03;5051153;28;20024;-80
2023/12/04 00:16:41;;;;;;;27.95;17.58;;;;;;;0.55;100.00;99796.16;5050095;28;20043;-80
2023/12/04 00:19:09;;;;;;;33.10;21.95;;;;;;;0.48;100.00;99789.72;5051098;28;20063;-79
2023/12/04 00:21:35;;;;;;;26.45;18.65;;;;;;;0.42;100.00;99796.38;5035008;28;20074;-80
2023/12/04 00:24:01;;;;;;;21.92;15.05;;;;;;;0.38;100.00;99808.22;5035019;28;20110;-80
2023/12/04 00:26:26;;;;;;;19.42;15.32;;;;;;;0.46;100.00;99800.44;5034739;28;20037;-80
2023/12/04 00:28:52;;;;;;;20.67;15.25;;;;;;;0.54;100.00;99805.91;5018342;28;20037;-79
2023/12/04 00:31:18;;;;;;;19.95;16.85;;;;;;;0.47;100.00;99803.94;5034364;28;20029;-80
2023/12/04 00:33:45;;;;;;;18.35;13.98;;;;;;;0.39;100.00;99808.06;5018562;28;20040;-79
2023/12/04 00:36:11;;;;;;;20.65;12.73;;;;;;;0.32;100.00;99804.31;4966081;28;1509544;-79
2023/12/04 00:38:39;;;;;;;18.98;15.23;;;;;;;0.20;100.00;99806.19;5051186;28;20440;-80
2023/12/04 00:41:05;;;;;;;19.80;13.43;;;;;;;0.22;100.00;99817.47;5019228;28;20036;-80
2023/12/04 00:43:33;;;;;;;16.67;11.73;;;;;;;0.19;100.00;99811.63;5018965;28;20047;-80
2023/12/04 00:45:59;;;;;;;19.20;13.05;;;;;;;0.14;100.00;99811.19;5068783;28;20041;-80
2023/12/04 00:48:24;;;;;;;17.27;13.70;;;;;;;0.08;100.00;99793.19;5051625;28;20108;-79
2023/12/04 00:50:51;;;;;;;17.83;12.68;;;;;;;0.08;100.00;99812.56;5019190;28;20151;-79
2023/12/04 00:53:17;;;;;;;11.40;8.75;;;;;;;0.03;100.00;99820.03;5051676;28;20053;-79
2023/12/04 00:55:42;;;;;;;16.23;13.55;;;;;;;0.09;100.00;99824.78;5019280;28;20545;-79
2023/12/04 00:58:08;;;;;;;12.55;9.00;;;;;;;0.11;100.00;99824.69;5051586;28;20468;-80
2023/12/04 01:00:34;;;;;;;16.83;12.48;;;;;;;0.01;100.00;99815.84;5035437;28;20037;-80
2023/12/04 01:02:59;;;;;;;15.45;12.52;;;;;;;-0.06;100.00;99802.31;5035455;28;20048;-81
2023/12/04 01:05:25;;;;;;;6.50;4.20;;;;;;;-0.02;100.00;99823.06;5019093;28;20035;-80
2023/12/04 01:07:51;;;;;;;14.20;11.60;;;;;;;0.03;100.00;99822.69;5018733;28;20408;-80
2023/12/04 01:10:16;;;;;;;12.60;8.88;;;;;;;0.03;100.00;99827.09;5018654;28;20044;-80
2023/12/04 01:12:42;;;;;;;9.73;5.35;;;;;;;-0.08;100.00;99828.88;5018714;28;20086;-79
2023/12/04 01:15:09;;;;;;;14.60;10.57;;;;;;;-0.14;100.00;99831.19;5018728;28;20039;-80
2023/12/04 01:17:35;;;;;;;8.90;5.88;;;;;;;-0.11;100.00;99837.03;5035241;28;20074;-79
2023/12/04 01:20:01;;;;;;;12.48;9.75;;;;;;;-0.23;100.00;99824.91;5051766;28;20048;-79
2023/12/04 01:22:27;;;;;;;13.20;8.98;;;;;;;-0.25;100.00;99835.56;5018782;28;20040;-80
2023/12/04 01:25:34;;;;;;;17.23;13.52;;;;;;;-0.31;100.00;99830.00;5007781;28;20545;-80
2023/12/04 01:28:25;;;;;;;14.77;9.90;;;;;;;-0.20;100.00;99824.63;5038742;28;20394;-80
2023/12/04 01:31:16;;;;;;;14.63;9.77;;;;;;;-0.27;100.00;99818.19;5038524;28;20410;-80
2023/12/04 01:33:41;;;;;;;13.80;10.18;;;;;;;-0.22;100.00;99835.31;5022212;28;20079;-80
2023/12/04 01:36:08;;;;;;;14.82;9.90;;;;;;;-0.35;100.00;99837.31;5038361;28;20053;-80
2023/12/04 01:38:35;;;;;;;17.23;13.23;;;;;;;-0.42;100.00;99840.59;5038583;28;20459;-80
2023/12/04 01:41:00;;;;;;;15.15;10.50;;;;;;;-0.43;100.00;99834.47;5038401;28;20052;-80
2023/12/04 01:43:26;;;;;;;14.77;8.73;;;;;;;-0.35;100.00;99839.13;5038347;28;20460;-80
2023/12/04 01:45:52;;;;;;;14.18;7.47;;;;;;;-0.54;100.00;99840.66;5038921;28;20032;-80
2023/12/04 01:48:18;;;;;;;17.23;11.05;;;;;;;-0.75;100.00;99837.16;5038247;28;20024;-80
2023/12/04 01:50:44;;;;;;;14.75;7.93;;;;;;;-0.75;100.00;99842.44;5037899;28;20025;-80
2023/12/04 01:53:10;;;;;;;20.85;10.70;;;;;;;-0.60;100.00;99845.63;5021884;28;20033;-80
2023/12/04 01:55:36;;;;;;;20.70;10.73;;;;;;;-0.72;100.00;99848.28;5021967;28;20033;-80
2023/12/04 01:58:02;;;;;;;20.05;10.48;;;;;;;-0.74;100.00;99844.09;5021834;28;20031;-80
2023/12/04 02:00:30;;;;;;;23.73;11.30;;;;;;;-0.78;100.00;99854.06;5021273;28;20115;-81
2023/12/04 02:02:56;;;;;;;28.20;17.15;;;;;;;-0.67;100.00;99859.31;5020418;28;20075;-80
2023/12/04 02:05:22;;;;;;;23.35;12.30;;;;;;;-0.67;100.00;99855.84;5052667;28;20037;-81
2023/12/04 02:07:48;;;;;;;23.35;11.93;;;;;;;-0.73;100.00;99866.91;5019942;28;20361;-81
2023/12/04 02:10:14;;;;;;;13.57;7.03;;;;;;;-0.88;100.00;99866.34;5021005;28;20056;-81
2023/12/04 02:12:39;;;;;;;16.70;7.65;;;;;;;-1.03;100.00;99870.22;5037573;28;20032;-81
2023/12/04 02:15:11;;;;;;;28.50;15.93;;;;;;;-1.00;100.00;99864.72;5037261;28;20172;-80
2023/12/04 02:17:37;;;;;;;24.63;10.65;;;;;;;-0.89;100.00;99864.66;5020881;28;20037;-80
2023/12/04 02:20:05;;;;;;;19.55;8.23;;;;;;;-0.83;100.00;99866.81;5054283;28;20028;-80
2023/12/04 02:22:30;;;;;;;29.98;13.80;;;;;;;-0.67;100.00;99867.22;5053967;28;20044;-80
2023/12/04 02:24:59;;;;;;;33.28;18.30;;;;;;;-0.41;100.00;99868.69;5021315;28;20464;-80
2023/12/04 02:27:34;;;;;;;30.55;14.15;;;;;;;-0.19;100.00;99884.41;5037894;28;20033;-80
2023/12/04 02:30:03;;;;;;;13.70;7.50;;;;;;;0.01;100.00;99868.72;5021160;28;20135;-80
2023/12/04 02:32:31;;;;;;;22.38;12.65;;;;;;;0.19;100.00;99872.44;5037214;28;20472;-80
2023/12/04 02:35:02;;;;;;;20.55;11.15;;;;;;;0.30;100.00;99876.81;5053693;28;20032;-80
2023/12/04 02:37:28;;;;;;;19.40;12.85;;;;;;;0.34;100.00;99875.56;5053822;28;20036;-80
2023/12/04 02:39:55;;;;;;;15.82;9.68;;;;;;;0.38;100.00;99884.91;5036410;28;20372;-80
2023/12/04 02:42:22;;;;;;;9.70;5.38;;;;;;;0.42;100.00;99900.38;5020663;28;20534;-80
2023/12/04 02:44:47;;;;;;;10.25;5.57;;;;;;;0.44;100.00;99889.66;5053862;28;20062;-80
2023/12/04 02:47:13;;;;;;;13.73;7.22;;;;;;;0.51;100.00;99896.09;5020314;28;20476;-80
2023/12/04 02:49:39;;;;;;;13.27;7.13;;;;;;;0.53;100.00;99888.88;5020804;28;20545;-80
2023/12/04 02:52:05;;;;;;;12.07;6.47;;;;;;;0.49;100.00;99887.47;5020723;28;20116;-80
2023/12/04 02:54:30;;;;;;;16.70;10.20;;;;;;;0.50;100.00;99901.50;5037097;28;20043;-80
2023/12/04 02:56:58;;;;;;;10.27;6.63;;;;;;;0.47;100.00;99899.13;5053326;28;20032;-80
2023/12/04 02:59:24;;;;;;;8.70;5.25;;;;;;;0.41;100.00;99900.50;5036537;28;20025;-80
2023/12/04 03:01:49;;;;;;;7.80;3.70;;;;;;;0.30;100.00;99898.78;5037062;28;20048;-80
2023/12/04 03:04:15;;;;;;;4.85;3.17;;;;;;;0.20;100.00;99904.00;5053388;28;20056;-80
2023/12/04 03:06:41;;;;;;;13.35;7.22;;;;;;;0.13;100.00;99910.81;5036798;28;20041;-80
2023/12/04 03:09:07;;;;;;;7.18;4.35;;;;;;;0.06;100.00;99900.88;5036911;28;20099;-80
2023/12/04 03:11:33;;;;;;;13.88;7.15;;;;;;;0.02;100.00;99905.56;5036480;28;20029;-80
2023/12/04 03:14:00;;;;;;;12.50;7.78;;;;;;;0.02;100.00;99907.38;5036836;28;20047;-80
2023/12/04 03:16:28;;;;;;;8.95;5.00;;;;;;;0.01;100.00;99903.91;5036275;28;20025;-81
2023/12/04 03:19:00;;;;;;;10.90;6.68;;;;;;;0.04;100.00;99914.22;5022201;28;20116;-80
2023/12/04 03:21:26;;;;;;;13.07;9.15;;;;;;;0.07;100.00;99916.59;5019919;28;20127;-80
2023/12/04 03:23:51;;;;;;;9.38;6.00;;;;;;;0.14;100.00;99915.13;5020250;28;20029;-80
2023/12/04 03:26:17;;;;;;;9.43;8.25;;;;;;;0.18;100.00;99919.16;5036669;28;20025;-80
2023/12/04 03:28:43;;;;;;;5.85;4.13;;;;;;;0.39;100.00;99911.22;5019702;28;20123;-79
2023/12/04 03:31:09;;;;;;;5.47;4.13;;;;;;;0.50;100.00;99909.44;5052650;28;20033;-80
2023/12/04 03:33:34;;;;;;;6.63;3.92;;;;;;;0.51;100.00;99911.16;5019676;28;20521;-80
2023/12/04 03:36:00;;;;;;;6.25;4.72;;;;;;;0.53;100.00;99910.03;5020062;28;20399;-80
2023/12/04 03:38:26;;;;;;;4.50;2.95;;;;;;;0.47;100.00;99909.72;5036116;28;20044;-80
2023/12/04 03:40:51;;;;;;;6.82;4.18;;;;;;;0.37;100.00;99912.31;5052915;28;20040;-80
2023/12/04 03:43:17;;;;;;;9.30;6.28;;;;;;;0.23;100.00;99908.19;5019806;28;20060;-80
2023/12/04 03:45:43;;;;;;;7.00;5.22;;;;;;;0.15;100.00;99911.50;5019892;28;20051;-80
2023/12/04 03:48:11;;;;;;;9.20;6.35;;;;;;;0.10;100.00;99912.84;5019656;28;20036;-81
2023/12/04 03:50:37;;;;;;;8.43;4.93;;;;;;;0.06;100.00;99901.72;5019906;28;20051;-80
2023/12/04 03:53:03;;;;;;;6.80;4.97;;;;;;;0.07;100.00;99907.81;5019576;28;20395;-80
2023/12/04 03:55:28;;;;;;;10.02;7.30;;;;;;;0.04;100.00;99913.38;5052245;28;20039;-81
2023/12/04 03:57:58;;;;;;;10.07;6.82;;;;;;;0.06;100.00;99914.09;5053451;28;20045;-80
2023/12/04 04:00:23;;;;;;;10.50;7.88;;;;;;;0.06;100.00;99916.72;5020100;28;20041;-80
2023/12/04 04:02:49;;;;;;;10.77;5.63;;;;;;;0.02;100.00;99910.84;5019852;28;20120;-80
2023/12/04 04:05:15;;;;;;;9.30;6.28;;;;;;;0.09;100.00;99911.19;5035759;28;20407;-79
2023/12/04 04:07:41;;;;;;;8.50;6.00;;;;;;;0.14;100.00;99909.81;5019524;28;20024;-80
2023/12/04 04:10:07;;;;;;;8.88;7.10;;;;;;;0.15;100.00;99913.31;5019551;28;20498;-79
2023/12/04 04:12:33;;;;;;;7.40;4.88;;;;;;;0.15;100.00;99921.22;5019602;28;20467;-80
2023/12/04 04:14:59;;;;;;;9.75;7.38;;;;;;;0.12;100.00;99918.84;5035596;28;20125;-80
2023/12/04 04:17:29;;;;;;;7.97;5.90;;;;;;;-0.01;100.00;99909.31;5035978;28;20099;-80
2023/12/04 04:19:57;;;;;;;9.55;6.40;;;;;;;-0.02;100.00;99922.66;5019390;28;20040;-80
2023/12/04 04:22:23;;;;;;;8.13;5.95;;;;;;;-0.32;100.00;99918.97;5035605;28;20033;-80
2023/12/04 04:24:49;;;;;;;8.93;6.43;;;;;;;-0.66;100.00;99920.88;5035231;28;20036;-80
2023/12/04 04:27:15;;;;;;;3.40;2.33;;;;;;;-0.95;100.00;99915.31;5019036;28;20029;-80
2023/12/04 04:29:41;;;;;;;7.72;5.25;;;;;;;-1.16;100.00;99926.59;5051927;28;20391;-80
2023/12/04 04:32:07;;;;;;;10.32;5.82;;;;;;;-1.36;100.00;99922.88;5018907;28;20100;-80
2023/12/04 04:34:33;;;;;;;7.43;5.18;;;;;;;-1.49;100.00;99926.59;5035829;28;20410;-80
2023/12/04 04:36:58;;;;;;;11.07;6.95;;;;;;;-1.55;100.00;99931.38;5019108;28;20526;-80
2023/12/04 04:39:27;;;;;;;17.33;12.10;;;;;;;-1.53;100.00;99930.41;5019236;28;20029;-80
2023/12/04 04:41:56;;;;;;;11.32;7.00;;;;;;;-1.59;100.00;99931.75;5035452;28;20124;-80
2023/12/04 04:44:36;;;;;;;17.02;11.73;;;;;;;-1.61;100.00;99926.59;5036224;28;20383;-80
2023/12/04 04:47:05;;;;;;;5.85;3.85;;;;;;;-1.55;100.00;99944.56;5019970;28;20040;-80
2023/12/04 04:49:41;;;;;;;6.78;4.53;;;;;;;-1.56;100.00;99942.06;5051440;28;20029;-80
2023/12/04 04:52:43;;;;;;;5.88;3.60;;;;;;;-1.37;100.00;99950.22;5022196;28;20041;-80
2023/12/04 04:55:30;;;;;;;8.52;4.78;;;;;;;-1.36;100.00;99938.72;5019805;28;20041;-80
2023/12/04 04:58:41;;;;;;;11.93;7.82;;;;;;;-1.37;100.00;99942.31;5043924;28;20072;-80
2023/12/04 05:01:20;;;;;;;8.88;4.85;;;;;;;-1.56;100.00;99931.53;5038786;28;20059;-80
2023/12/04 05:07:04;;;;;;;5.85;3.45;;;;;;;-1.90;100.00;99939.38;5055534;28;20167;-80
2023/12/04 05:10:06;;;;;;;13.35;7.40;;;;;;;-2.12;100.00;99926.97;5040382;28;20049;-80
2023/12/04 05:13:05;;;;;;;;;;;;;;;;;;;;;
2023/12/04 05:15:49;;;;;;;15.82;8.95;;;;;;;-2.22;100.00;99937.34;5055198;28;20041;-80
2023/12/04 05:18:47;;;;;;;3.50;2.85;;;;;;;-2.34;100.00;99940.91;5024653;28;20040;-81
2023/12/04 05:21:26;;;;;;;;;;;;;;;-2.26;100.00;99972.75;5055458;28;20041;-80
2023/12/04 05:23:56;;;;;;;10.50;6.07;;;;;;;-2.36;100.00;99961.22;5038362;28;19909;-80
2023/12/04 05:26:27;;;;;;;9.50;6.15;;;;;;;-2.24;100.00;99962.13;5038970;28;20033;-80
2023/12/04 05:29:54;;;;;;;;;;;;;;;;;;;;;
2023/12/04 05:35:37;;;;;;;9.63;5.78;;;;;;;-2.11;100.00;99959.44;5054532;28;20407;-80
2023/12/04 05:41:17;;;;;;;;;;;;;;;-2.03;100.00;99986.03;5056289;28;20044;-80
2023/12/04 05:43:43;;;;;;;7.32;4.00;;;;;;;-2.06;100.00;99978.38;5055193;28;19909;-80
2023/12/04 05:46:10;;;;;;;12.65;6.15;;;;;;;-2.16;100.00;99988.72;5022027;28;20036;-80
2023/12/04 05:48:38;;;;;;;6.35;4.28;;;;;;;-2.22;100.00;99999.72;5022026;28;20067;-80
2023/12/04 05:51:04;;;;;;;7.32;4.93;;;;;;;-2.19;100.00;99996.03;5038582;28;20033;-80
2023/12/04 05:53:30;;;;;;;4.53;3.33;;;;;;;-2.07;100.00;99997.75;5021980;28;20124;-80
2023/12/04 05:55:56;;;;;;;8.20;5.75;;;;;;;-2.00;100.00;99986.63;5021957;28;20037;-80
2023/12/04 05:58:21;;;;;;;5.72;2.85;;;;;;;-1.94;100.00;99992.41;5021777;28;20044;-80
2023/12/04 06:00:50;;;;;;;10.00;6.43;;;;;;;-2.06;100.00;99996.81;5021816;28;20025;-80
2023/12/04 06:03:15;;;;;;;11.82;6.57;;;;;;;-2.10;100.00;99988.28;5021705;28;20094;-80
2023/12/04 06:05:50;;;;;;;14.85;7.28;;;;;;;-2.15;100.00;99993.03;5038221;28;20036;-80
2023/12/04 06:08:16;;;;;;;4.32;3.28;;;;;;;-2.13;100.00;100000.84;5037626;28;20033;-80
2023/12/04 06:10:42;;;;;;;10.27;6.15;;;;;;;-2.27;100.00;99999.22;5070690;28;20039;-80
2023/12/04 06:13:10;;;;;;;7.55;3.80;;;;;;;-2.19;100.00;100002.13;5021766;28;20036;-80
2023/12/04 06:15:39;;;;;;;4.90;3.28;;;;;;;-2.25;100.00;100003.44;5021330;28;20029;-80
2023/12/04 06:18:05;;;;;;;12.77;7.05;;;;;;;-2.32;100.00;100004.81;5054095;28;20037;-80
2023/12/04 06:20:33;;;;;;;11.10;6.22;;;;;;;-2.29;100.00;99999.31;5021490;28;20372;-82
2023/12/04 06:22:59;;;;;;;12.40;5.65;;;;;;;-2.22;100.00;100002.38;5021486;28;20442;-80
2023/12/04 06:25:25;;;;;;;11.07;6.80;;;;;;;-2.15;100.00;99998.31;5020962;28;20064;-80
2023/12/04 06:27:51;;;;;;;15.63;9.77;;;;;;;-2.09;100.00;100005.78;5037343;28;20108;-80
2023/12/04 06:30:18;;;;;;;15.68;7.65;;;;;;;-2.07;100.00;100008.28;5036562;28;20036;-80
2023/12/04 06:32:44;;;;;;;12.93;6.88;;;;;;;-2.08;100.00;100015.34;5054374;28;20052;-80
2023/12/04 06:35:10;;;;;;;2.38;1.98;;;;;;;-2.00;100.00;100015.63;5020799;28;20037;-80
2023/12/04 06:37:39;;;;;;;12.60;5.75;;;;;;;-1.94;100.00;100006.41;5020616;28;20039;-80
2023/12/04 06:40:08;;;;;;;4.80;3.70;;;;;;;-1.99;100.00;100003.28;5037209;28;20399;-80
2023/12/04 06:42:35;;;;;;;12.73;7.68;;;;;;;-1.73;100.00;100006.59;5037794;28;20033;-80
2023/12/04 06:45:01;;;;;;;3.42;3.03;;;;;;;-1.69;100.00;100008.06;5036895;28;20025;-80
2023/12/04 06:47:28;;;;;;;3.88;2.72;;;;;;;-1.68;100.00;100020.28;5053329;28;20074;-80
2023/12/04 06:49:54;;;;;;;6.07;4.35;;;;;;;-1.74;100.00;100030.44;5020841;28;20128;-80
2023/12/04 06:52:19;;;;;;;10.77;4.50;;;;;;;-1.94;100.00;100034.56;5020638;28;20053;-80
2023/12/04 06:54:45;;;;;;;10.20;6.15;;;;;;;-1.95;100.00;100031.09;5020603;28;20025;-80
2023/12/04 06:57:11;;;;;;;10.18;6.55;;;;;;;-2.05;100.00;100024.81;5020598;28;20037;-80
2023/12/04 06:59:36;;;;;;;12.13;6.25;;;;;;;-2.16;100.00;100043.22;5053140;28;20029;-81
2023/12/04 07:02:03;;;;;;;9.02;4.43;;;;;;;-2.28;100.00;100043.13;5037168;28;20064;-80
2023/12/04 07:04:29;;;;;;;11.77;5.85;;;;;;;-2.28;100.00;100051.03;5037181;28;20528;-80
2023/12/04 07:07:00;;;;;;;11.30;6.10;;;;;;;-2.35;100.00;100054.25;5037069;28;20029;-80
2023/12/04 07:09:27;;;;;;;9.82;5.38;;;;;;;-2.40;100.00;100046.66;5020932;28;20123;-80
2023/12/04 07:11:53;;;;;;;7.90;4.78;;;;;;;-2.39;100.00;100053.59;5020590;28;20052;-81
2023/12/04 07:14:18;;;;;;;5.18;3.30;;;;;;;-2.50;100.00;100048.28;5052977;28;20407;-80
2023/12/04 07:16:44;;;;;;;7.88;3.78;;;;;;;-2.48;100.00;100055.09;5036692;28;20037;-80
2023/12/04 07:19:10;;;;;;;8.52;5.03;;;;;;;-2.57;100.00;100055.75;5053963;28;20038;-80
2023/12/04 07:21:37;;;;;;;7.68;4.43;;;;;;;-2.56;100.00;100057.44;5036709;28;20040;-80
2023/12/04 07:24:03;;;;;;;7.78;4.90;;;;;;;-2.67;100.00;100058.22;5052866;28;20032;-80
2023/12/04 07:26:30;;;;;;;7.72;3.83;;;;;;;-2.62;100.00;100063.16;5036070;28;20471;-80
2023/12/04 07:28:59;;;;;;;13.82;7.57;;;;;;;-2.55;100.00;100068.81;5052915;28;20036;-80
2023/12/04 07:31:28;;;;;;;11.00;4.93;;;;;;;-2.58;100.00;100069.03;5052736;28;20036;-80
2023/12/04 07:33:56;;;;;;;4.72;2.35;;;;;;;-2.50;100.00;100062.25;5052616;28;20037;-80
2023/12/04 07:36:24;;;;;;;8.18;4.47;;;;;;;-2.49;100.00;100073.63;5068992;28;20033;-80
2023/12/04 07:38:50;;;;;;;7.07;4.28;;;;;;;-2.51;100.00;100072.91;5036260;28;20039;-80
2023/12/04 07:41:17;;;;;;;9.20;4.97;;;;;;;-2.22;100.00;100071.66;5036383;28;20037;-80
2023/12/04 07:43:43;;;;;;;9.98;4.65;;;;;;;-2.04;100.00;100074.75;5019969;28;20029;-80
2023/12/04 07:46:10;;;;;;;6.07;4.20;;;;;;;-2.05;100.00;100070.44;5019894;28;20036;-80
2023/12/04 07:48:36;;;;;;;13.23;6.78;;;;;;;-2.00;100.00;100075.38;5036185;28;20036;-80
2023/12/04 07:51:10;;;;;;;13.05;7.72;;;;;;;-2.00;100.00;100070.09;5019776;28;20037;-80
2023/12/04 07:53:35;;;;;;;;;;;;;;;-1.91;100.00;100079.94;5018471;28;20494;-80
2023/12/04 07:56:04;;;;;;;4.63;3.83;;;;;;;-1.78;100.00;100070.19;5069244;28;19908;-80
2023/12/04 07:58:31;;;;;;;5.20;3.40;;;;;;;-1.77;100.00;100063.16;5036162;28;20032;-80
2023/12/04 08:00:57;;;;;;;9.13;4.30;;;;;;;-1.73;100.00;100072.50;5036085;28;20037;-80
2023/12/04 08:03:23;;;;;;;4.35;2.50;;;;;;;-1.70;100.00;100074.06;5035638;28;20052;-80
2023/12/04 08:05:52;;;;;;;4.88;3.22;;;;;;;-1.80;100.00;100073.88;5019708;28;20036;-80
2023/12/04 08:08:18;;;;;;;5.13;3.40;;;;;;;-1.78;100.00;100086.00;5035518;28;20024;-80
2023/12/04 08:11:10;;;;;;;11.23;7.65;;;;;;;-1.80;100.00;100066.84;5019351;28;20031;-80
2023/12/04 08:13:38;;;;;;;11.60;6.72;;;;;;;-1.70;100.00;100084.59;5019629;28;20087;-80
2023/12/04 08:16:04;;;;;;;5.53;3.47;;;;;;;-1.79;100.00;100099.31;5019326;28;20044;-80
2023/12/04 08:18:30;;;;;;;5.40;2.83;;;;;;;-1.74;100.00;100098.97;5019235;28;20064;-80
2023/12/04 08:20:55;;;;;;;4.95;3.17;;;;;;;-1.78;100.00;100109.72;5019023;28;20538;-81
2023/12/04 08:23:23;;;;;;;3.17;2.33;;;;;;;-1.90;100.00;100107.16;5019265;28;20446;-80
2023/12/04 08:25:49;;;;;;;7.03;3.28;;;;;;;-1.77;100.00;100116.69;5035271;28;20079;-80
2023/12/04 08:28:15;;;;;;;8.90;4.10;;;;;;;-1.80;100.00;100118.69;5051777;28;20471;-80
2023/12/04 08:30:40;;;;;;;7.80;3.90;;;;;;;-1.77;100.00;100119.31;5019341;28;20060;-80
2023/12/04 08:33:06;;;;;;;8.95;4.20;;;;;;;-1.78;100.00;100119.44;5035715;28;20029;-81
2023/12/04 08:35:34;;;;;;;7.32;3.78;;;;;;;-1.94;100.00;100117.06;5053051;28;20454;-80
2023/12/04 08:38:00;;;;;;;4.70;2.60;;;;;;;-1.98;100.00;100123.53;5021534;28;20033;-80
2023/12/04 08:40:26;;;;;;;4.25;2.55;;;;;;;-2.02;100.00;100119.41;5039316;28;20083;-81
2023/12/04 08:42:51;;;;;;;5.28;4.03;;;;;;;-1.95;100.00;100127.72;5023056;28;20522;-80
2023/12/04 08:45:17;;;;;;;5.53;2.95;;;;;;;-1.85;100.00;100141.94;5039207;28;20067;-79
2023/12/04 08:47:46;;;;;;;8.52;5.03;;;;;;;-1.82;100.00;100134.63;5022874;28;20086;-79
2023/12/04 08:50:31;;;;;;;6.90;2.90;;;;;;;-1.71;100.00;100138.28;5022484;28;20126;-80
2023/12/04 08:52:57;;;;;;;9.20;3.67;;;;;;;-1.66;100.00;100149.34;5025014;28;20480;-79
2023/12/04 08:55:22;;;;;;;5.22;3.78;;;;;;;-1.58;100.00;100149.59;5039620;28;20064;-80
2023/12/04 08:57:48;;;;;;;7.45;4.53;;;;;;;-1.51;100.00;100150.81;5023459;28;20060;-80
2023/12/04 09:00:14;;;;;;;6.22;3.50;;;;;;;-1.43;100.00;100151.13;5038887;28;20513;-80
2023/12/04 09:02:40;;;;;;;5.07;3.80;;;;;;;-1.49;100.00;100135.72;5022753;28;20033;-80
2023/12/04 09:05:06;;;;;;;9.55;5.10;;;;;;;-1.41;100.00;100136.00;5055689;28;20033;-80
2023/12/04 09:07:32;;;;;;;5.15;3.35;;;;;;;-1.43;100.00;100137.94;5023011;28;20056;-80
2023/12/04 09:09:58;;;;;;;8.85;4.20;;;;;;;-1.33;100.00;100149.44;5055736;28;20479;-80
2023/12/04 09:12:24;;;;;;;9.95;4.32;;;;;;;-1.28;100.00;100135.09;5022131;28;20024;-80
2023/12/04 09:14:51;;;;;;;5.85;3.45;;;;;;;-1.27;100.00;100148.19;5039223;28;20059;-80
2023/12/04 09:17:17;;;;;;;9.20;4.32;;;;;;;-1.30;100.00;100140.47;5021431;28;20032;-79
2023/12/04 09:19:46;;;;;;;5.50;2.85;;;;;;;-1.16;100.00;100150.84;5022575;28;20482;-79
2023/12/04 09:22:13;;;;;;;5.15;2.65;;;;;;;-1.16;100.00;100142.94;5006673;28;20029;-79
2023/12/04 09:24:38;;;;;;;4.57;2.33;;;;;;;-1.08;100.00;100142.34;5038929;28;20025;-79
2023/12/04 09:27:06;;;;;;;2.65;2.17;;;;;;;-0.93;100.00;100146.47;5022302;28;20024;-79
2023/12/04 09:29:33;;;;;;;3.35;1.63;;;;;;;-0.71;100.00;100139.53;5022768;28;20037;-79
2023/12/04 09:32:01;;;;;;;3.80;2.30;;;;;;;-0.54;100.00;100146.97;5054774;28;20135;-80
2023/12/04 09:34:26;;;;;;;8.75;4.22;;;;;;;-0.48;100.00;100146.50;5021869;28;20025;-80
2023/12/04 09:36:52;;;;;;;5.88;3.17;;;;;;;-0.37;100.00;100145.66;5026503;28;20051;-78
2023/12/04 09:39:18;;;;;;;3.55;1.67;;;;;;;-0.35;100.00;100142.88;5068703;28;20040;-79
2023/12/04 09:41:44;;;;;;;4.22;2.78;;;;;;;-0.07;100.00;100145.03;5021696;28;20124;-79
2023/12/04 09:44:40;;;;;;;3.13;1.92;;;;;;;0.28;100.00;100149.28;5021875;28;20095;-79
2023/12/04 09:47:17;;;;;;;5.65;3.47;;;;;;;0.54;100.00;100148.94;5037817;28;20083;-79
2023/12/04 09:49:52;;;;;;;4.18;2.83;;;;;;;0.59;100.00;100160.00;5022055;28;20040;-80
2023/12/04 09:52:19;;;;;;;3.03;1.63;;;;;;;0.83;100.00;100170.34;5021854;28;20079;-79
2023/12/04 09:54:51;;;;;;;4.03;2.58;;;;;;;1.05;100.00;100169.38;5037647;28;20395;-80
2023/12/04 09:57:17;;;;;;;4.93;2.92;;;;;;;0.94;100.00;100172.09;5038223;28;20102;-80
2023/12/04 09:59:44;;;;;;;3.33;1.98;;;;;;;0.95;100.00;100171.94;5021463;28;20476;-80
2023/12/04 10:06:21;;;;;;;1.95;1.60;;;;;;;2.53;100.00;100166.19;4987709;28;20033;-80
2023/12/04 10:08:47;;;;;;;2.55;1.85;;;;;;;3.19;100.00;100180.56;5017219;28;20037;-80
2023/12/04 10:11:26;;;;;;;3.95;2.55;;;;;;;3.46;100.00;100183.28;5022170;28;20476;-80
2023/12/04 10:13:53;;;;;;;4.43;2.80;;;;;;;3.55;100.00;100191.38;5038077;28;20039;-80
2023/12/04 10:16:36;;;;;;;1.23;1.13;;;;;;;3.66;100.00;100197.38;5021111;28;20120;-81
2023/12/04 10:22:15;;;;;;;2.83;1.90;;;;;;;3.88;100.00;100188.19;5053993;28;20363;-79
2023/12/04 10:24:44;;;;;;;1.83;1.38;;;;;;;3.30;100.00;100196.31;5036718;28;20480;-79
2023/12/04 10:27:26;;;;;;;3.55;2.10;;;;;;;3.31;100.00;100200.69;5037107;28;20037;-80
2023/12/04 10:29:58;;;;;;;1.98;1.55;;;;;;;3.41;100.00;100193.50;5037904;28;20032;-80
2023/12/04 10:32:24;;;;;;;1.20;1.10;;;;;;;3.58;100.00;100199.91;5020942;28;20043;-80
2023/12/04 10:34:50;;;;;;;3.92;2.15;;;;;;;3.35;100.00;100186.13;5020120;28;20124;-80
2023/12/04 10:37:19;;;;;;;3.00;1.65;;;;;;;3.26;100.00;100201.09;5052169;28;20033;-80
2023/12/04 10:39:50;;;;;;;1.95;1.10;;;;;;;3.22;100.00;100205.00;5036341;28;20064;-80
2023/12/04 10:42:30;;;;;;;4.32;2.30;;;;;;;3.51;100.00;100194.31;5020667;28;20039;-80
2023/12/04 10:45:01;;;;;;;0.95;0.90;;;;;;;3.31;100.00;100198.03;5021489;28;20183;-79
2023/12/04 10:47:30;;;;;;;2.35;1.63;;;;;;;3.21;100.00;100197.19;5036707;28;20129;-80
2023/12/04 10:49:57;;;;;;;2.85;2.10;;;;;;;2.99;100.00;100188.56;5037306;28;20036;-80
2023/12/04 10:52:31;;;;;;;3.50;2.42;;;;;;;2.97;100.00;100198.47;5020117;28;20036;-80
2023/12/04 10:54:59;;;;;;;3.88;2.65;;;;;;;3.04;100.00;100206.69;5035561;28;20123;-80
2023/12/04 10:57:36;;;;;;;5.60;2.63;;;;;;;2.88;100.00;100201.94;5020023;28;20134;-80
2023/12/04 11:00:14;;;;;;;3.88;2.45;;;;;;;2.77;100.00;100207.41;5037258;28;20060;-80
2023/12/04 11:02:53;;;;;;;3.65;2.47;;;;;;;2.69;100.00;100189.53;5037156;28;20476;-80
2023/12/04 11:05:25;;;;;;;4.38;2.28;;;;;;;2.68;100.00;100193.16;5021182;28;20036;-80
2023/12/04 11:07:59;;;;;;;5.93;2.63;;;;;;;2.92;100.00;100190.09;5020705;28;20036;-80
2023/12/04 11:10:26;;;;;;;4.00;1.88;;;;;;;3.11;100.00;100177.78;5020707;28;20040;-80
2023/12/04 11:13:04;;;;;;;3.03;1.52;;;;;;;3.18;100.00;100190.34;5019292;28;20029;-80
2023/12/04 11:15:31;;;;;;;3.08;1.75;;;;;;;2.89;100.00;100179.75;5019810;28;20483;-81
2023/12/04 11:18:05;;;;;;;4.60;2.00;;;;;;;2.95;100.00;100186.31;5052812;28;20068;-81
2023/12/04 11:20:39;;;;;;;3.55;1.70;;;;;;;2.95;100.00;100178.34;5021617;28;20471;-81
2023/12/04 11:23:06;;;;;;;3.20;1.90;;;;;;;3.11;100.00;100173.28;5036640;28;20036;-81
2023/12/04 11:25:34;;;;;;;2.25;1.58;;;;;;;3.17;100.00;100167.41;5037115;28;20102;-81
2023/12/04 11:28:01;;;;;;;2.53;1.58;;;;;;;3.34;100.00;100172.97;5020275;28;20025;-81
2023/12/04 11:30:29;;;;;;;3.22;2.00;;;;;;;3.47;100.00;100168.19;5036105;28;20075;-81
2023/12/04 11:32:57;;;;;;;1.67;1.42;;;;;;;3.51;100.00;100178.38;5020003;28;20124;-81
2023/12/04 11:35:25;;;;;;;3.10;2.00;;;;;;;3.24;100.00;100173.00;5036222;28;20037;-80
2023/12/04 11:37:52;;;;;;;3.75;1.52;;;;;;;3.14;100.00;100180.13;5019926;28;20102;-80
2023/12/04 11:40:18;;;;;;;3.10;1.90;;;;;;;3.08;100.00;100176.22;5036365;28;20021;-80
2023/12/04 11:42:44;;;;;;;1.35;1.25;;;;;;;3.15;100.00;100185.31;5019840;28;20029;-80
2023/12/04 11:45:11;;;;;;;2.10;1.35;;;;;;;3.43;100.00;100167.63;5035752;28;20033;-80
2023/12/04 11:47:55;;;;;;;2.25;1.15;;;;;;;3.69;100.00;100167.00;5036015;28;20029;-80
2023/12/04 11:50:21;;;;;;;1.35;0.80;;;;;;;3.77;100.00;100159.13;5019468;28;20029;-80